createdAt,value
2023-05-23T00:01:07.323Z,101474.53
2023-05-23T00:03:34.857Z,101475.06
2023-05-23T00:06:02.575Z,101465.66
2023-05-23T00:08:29.249Z,101469.19
2023-05-23T00:10:55.901Z,101473.34
2023-05-23T00:13:22.998Z,101469.84
2023-05-23T00:15:49.705Z,101463.94
2023-05-23T00:18:16.703Z,101457.69
2023-05-23T00:20:44.186Z,101453.31
2023-05-23T00:23:18.826Z,101446.34
2023-05-23T00:25:53.220Z,101452.75
2023-05-23T00:28:20.829Z,101448.41
2023-05-23T00:30:49.345Z,101451.72
2023-05-23T00:33:17.729Z,101451.47
2023-05-23T00:35:44.490Z,101455.84
2023-05-23T00:38:11.734Z,101455.16
2023-05-23T00:40:38.783Z,101450.59
2023-05-23T00:43:05.932Z,101445.09
2023-05-23T00:45:32.587Z,101443.94
2023-05-23T00:48:00.372Z,101439.22
2023-05-23T00:50:29.877Z,101435.50
2023-05-23T00:52:59.734Z,101431.91
2023-05-23T00:55:26.786Z,101431.91
2023-05-23T00:57:57.475Z,101432.84
2023-05-23T01:00:25.662Z,101431.03
2023-05-23T01:02:53.650Z,101437.97
2023-05-23T01:05:22.664Z,101428.16
2023-05-23T01:07:51.159Z,101430.84
2023-05-23T01:10:21.514Z,101431.03
2023-05-23T01:13:12.247Z,101427.88
2023-05-23T01:15:55.065Z,101435.50
2023-05-23T01:18:27.028Z,101438.13
2023-05-23T01:20:57.141Z,101436.25
2023-05-23T01:23:52.466Z,101441.34
2023-05-23T01:26:58.093Z,101440.34
2023-05-23T01:29:28.517Z,101439.59
2023-05-23T01:31:58.448Z,101436.19
2023-05-23T01:34:25.345Z,101435.44
2023-05-23T01:36:58.113Z,101437.38
2023-05-23T01:39:24.781Z,101435.69
2023-05-23T01:41:53.007Z,101429.66
2023-05-23T01:44:21.479Z,101422.78
2023-05-23T01:46:48.815Z,101432.88
2023-05-23T01:49:17.069Z,101427.84
2023-05-23T01:51:44.127Z,101441.28
2023-05-23T01:54:10.954Z,101436.06
2023-05-23T01:56:38.046Z,101443.38
2023-05-23T01:59:04.850Z,101438.84
2023-05-23T02:01:31.609Z,101428.88
2023-05-23T02:03:58.540Z,101426.91
2023-05-23T02:06:25.286Z,101423.34
2023-05-23T02:08:52.039Z,101419.59
2023-05-23T02:11:18.697Z,101410.66
2023-05-23T02:13:45.717Z,101417.72
2023-05-23T02:16:14.075Z,101412.41
2023-05-23T02:18:40.862Z,101404.47
2023-05-23T02:21:07.523Z,101411.50
2023-05-23T02:23:34.189Z,101406.94
2023-05-23T02:26:00.912Z,101402.63
2023-05-23T02:28:27.699Z,101409.69
2023-05-23T02:30:54.470Z,101398.16
2023-05-23T02:33:21.821Z,101395.53
2023-05-23T02:35:50.842Z,101393.81
2023-05-23T02:38:17.935Z,101392.09
2023-05-23T02:40:44.810Z,101387.63
2023-05-23T02:43:11.456Z,101391.22
2023-05-23T02:45:38.189Z,101386.00
2023-05-23T02:48:05.003Z,101380.72
2023-05-23T02:50:31.882Z,101378.88
2023-05-23T02:52:58.521Z,101373.59
2023-05-23T02:55:25.262Z,101368.25
2023-05-23T02:57:52.459Z,101367.47
2023-05-23T03:00:19.319Z,101362.00
2023-05-23T03:02:46.148Z,101366.41
2023-05-23T03:05:12.865Z,101362.00
2023-05-23T03:07:39.524Z,101358.41
2023-05-23T03:10:07.357Z,101362.00
2023-05-23T03:12:34.183Z,101352.38
2023-05-23T03:15:00.838Z,101357.84
2023-05-23T03:17:27.545Z,101353.63
2023-05-23T03:19:54.252Z,101345.81
2023-05-23T03:22:20.949Z,101347.44
2023-05-23T03:24:47.737Z,101342.78
2023-05-23T03:27:14.739Z,101340.84
2023-05-23T03:29:41.432Z,101346.88
2023-05-23T03:32:08.370Z,101341.44
2023-05-23T03:34:36.632Z,101342.28
2023-05-23T03:37:04.258Z,101340.50
2023-05-23T03:39:31.232Z,101340.38
2023-05-23T03:41:57.885Z,101344.75
2023-05-23T03:44:24.754Z,101333.34
2023-05-23T03:46:51.483Z,101324.41
2023-05-23T03:49:18.141Z,101330.66
2023-05-23T03:51:44.854Z,101328.84
2023-05-23T03:54:11.528Z,101321.63
2023-05-23T03:56:38.214Z,101322.44
2023-05-23T03:59:04.941Z,101318.84
2023-05-23T04:01:31.600Z,101321.47
2023-05-23T04:04:00.298Z,101318.72
2023-05-23T04:06:30.114Z,101313.25
2023-05-23T04:08:57.505Z,101309.59
2023-05-23T04:11:24.147Z,101305.78
2023-05-23T04:13:52.087Z,101308.41
2023-05-23T04:16:18.980Z,101301.16
2023-05-23T04:18:47.663Z,101299.28
2023-05-23T04:21:14.439Z,101295.56
2023-05-23T04:23:41.189Z,101293.75
2023-05-23T04:26:07.881Z,101298.16
2023-05-23T04:28:34.874Z,101290.09
2023-05-23T04:31:03.324Z,101292.63
2023-05-23T04:33:30.770Z,101286.16
2023-05-23T04:35:57.507Z,101286.03
2023-05-23T04:38:25.250Z,101279.69
2023-05-23T04:40:55.244Z,101275.72
2023-05-23T04:43:22.080Z,101281.53
2023-05-23T04:45:51.500Z,101276.66
2023-05-23T04:48:21.672Z,101277.28
2023-05-23T04:50:49.007Z,101268.06
2023-05-23T04:53:15.723Z,101262.31
2023-05-23T04:55:42.808Z,101260.13
2023-05-23T04:58:10.360Z,101259.94
2023-05-23T05:00:37.483Z,101256.09
2023-05-23T05:03:04.500Z,101256.69
2023-05-23T05:05:31.194Z,101252.00
2023-05-23T05:07:57.898Z,101248.97
2023-05-23T05:10:24.561Z,101250.41
2023-05-23T05:12:51.292Z,101250.72
2023-05-23T05:15:18.548Z,101245.72
2023-05-23T05:17:47.508Z,101245.28
2023-05-23T05:20:16.361Z,101239.47
2023-05-23T05:22:43.770Z,101239.94
2023-05-23T05:25:11.344Z,101231.66
2023-05-23T05:27:40.489Z,101228.69
2023-05-23T05:30:09.269Z,101231.09
2023-05-23T05:32:36.038Z,101228.97
2023-05-23T05:35:03.708Z,101232.22
2023-05-23T05:37:30.718Z,101229.06
2023-05-23T05:39:57.476Z,101228.50
2023-05-23T05:42:24.140Z,101223.53
2023-05-23T05:44:51.058Z,101220.44
2023-05-23T05:47:17.784Z,101221.84
2023-05-23T05:49:44.510Z,101227.72
2023-05-23T05:52:11.181Z,101233.78
2023-05-23T05:54:37.892Z,101230.78
2023-05-23T05:57:05.013Z,101227.94
2023-05-23T05:59:32.595Z,101220.59
2023-05-23T06:01:59.631Z,101228.31
2023-05-23T06:04:26.456Z,101223.53
2023-05-23T06:06:53.210Z,101223.31
2023-05-23T06:09:19.975Z,101220.41
2023-05-23T06:11:46.989Z,101219.97
2023-05-23T06:14:13.738Z,101219.53
2023-05-23T06:16:41.153Z,101219.09
2023-05-23T06:19:08.630Z,101215.13
2023-05-23T06:21:36.307Z,101219.19
2023-05-23T06:24:03.168Z,101214.22
2023-05-23T06:26:29.834Z,101221.66
2023-05-23T06:28:56.704Z,101214.72
2023-05-23T06:31:23.536Z,101212.00
2023-05-23T06:33:51.196Z,101210.28
2023-05-23T06:36:17.864Z,101214.50
2023-05-23T06:38:44.851Z,101208.13
2023-05-23T06:41:11.637Z,101206.28
2023-05-23T06:43:38.383Z,101210.91
2023-05-23T06:46:05.342Z,101211.22
2023-05-23T06:48:32.108Z,101211.56
2023-05-23T06:50:58.917Z,101214.53
2023-05-23T06:53:25.726Z,101209.47
2023-05-23T06:55:52.470Z,101208.88
2023-05-23T06:58:19.218Z,101216.34
2023-05-23T07:00:45.894Z,101206.06
2023-05-23T07:03:12.677Z,101206.41
2023-05-23T07:05:41.241Z,101199.88
2023-05-23T07:08:08.537Z,101196.78
2023-05-23T07:10:35.589Z,101197.44
2023-05-23T07:13:02.443Z,101190.91
2023-05-23T07:15:29.180Z,101196.81
2023-05-23T07:17:56.067Z,101184.88
2023-05-23T07:20:22.932Z,101187.09
2023-05-23T07:22:51.619Z,101191.81
2023-05-23T07:25:18.989Z,101192.22
2023-05-23T07:27:45.694Z,101190.84
2023-05-23T07:30:12.490Z,101186.09
2023-05-23T07:32:39.331Z,101186.97
2023-05-23T07:35:06.658Z,101183.28
2023-05-23T07:37:33.326Z,101185.69
2023-05-23T07:40:01.328Z,101182.47
2023-05-23T07:42:28.043Z,101186.44
2023-05-23T07:44:54.698Z,101186.75
2023-05-23T07:47:21.781Z,101177.28
2023-05-23T07:49:48.551Z,101181.16
2023-05-23T07:52:15.517Z,101184.28
2023-05-23T07:54:42.757Z,101181.16
2023-05-23T07:57:09.976Z,101180.06
2023-05-23T07:59:37.055Z,101181.47
2023-05-23T08:02:03.866Z,101183.72
2023-05-23T08:04:32.377Z,101180.72
2023-05-23T08:07:05.692Z,101183.84
2023-05-23T08:09:32.885Z,101177.03
2023-05-23T08:11:59.689Z,101175.75
2023-05-23T08:14:34.888Z,101175.28
2023-05-23T08:17:09.389Z,101177.44
2023-05-23T08:19:36.300Z,101178.69
2023-05-23T08:22:04.825Z,101178.47
2023-05-23T08:24:31.924Z,101177.25
2023-05-23T08:26:58.645Z,101176.81
2023-05-23T08:29:25.292Z,101166.53
2023-05-23T08:31:52.078Z,101168.91
2023-05-23T08:34:18.873Z,101164.13
2023-05-23T08:36:45.610Z,101165.50
2023-05-23T08:39:14.112Z,101166.88
2023-05-23T08:41:41.118Z,101169.34
2023-05-23T08:44:07.850Z,101174.41
2023-05-23T08:46:41.266Z,101167.84
2023-05-23T08:49:09.073Z,101173.72
2023-05-23T08:51:37.888Z,101172.41
2023-05-23T08:54:06.336Z,101174.75
2023-05-23T08:56:33.183Z,101166.28
2023-05-23T08:58:59.952Z,101177.84
2023-05-23T09:01:27.959Z,101175.63
2023-05-23T09:03:55.155Z,101178.97
2023-05-23T09:06:22.202Z,101173.22
2023-05-23T09:08:49.381Z,101171.75
2023-05-23T09:11:16.186Z,101173.84
2023-05-23T09:13:42.931Z,101165.41
2023-05-23T09:16:11.470Z,101162.22
2023-05-23T09:18:40.315Z,101158.41
2023-05-23T09:21:09.025Z,101162.72
2023-05-23T09:23:37.034Z,101167.44
2023-05-23T09:26:05.320Z,101165.22
2023-05-23T09:28:34.086Z,101161.28
2023-05-23T09:31:02.015Z,101162.75
2023-05-23T09:33:48.299Z,101159.47
2023-05-23T09:36:15.872Z,101168.66
2023-05-23T09:38:44.854Z,101168.16
2023-05-23T09:41:14.345Z,101171.72
2023-05-23T09:43:53.517Z,101167.91
2023-05-23T09:46:21.618Z,101164.72
2023-05-23T09:48:52.169Z,101168.66
2023-05-23T09:51:24.053Z,101166.16
2023-05-23T09:53:51.094Z,101170.81
2023-05-23T09:56:18.282Z,101173.16
2023-05-23T09:58:48.350Z,101159.00
2023-05-23T10:01:16.015Z,101175.00
2023-05-23T10:03:51.063Z,101174.13
2023-05-23T10:06:27.553Z,101162.94
2023-05-23T10:09:06.059Z,101168.69
2023-05-23T10:11:35.526Z,101171.47
2023-05-23T10:14:09.285Z,101165.31
2023-05-23T10:16:59.410Z,101166.09
2023-05-23T10:19:29.779Z,101158.31
2023-05-23T10:22:03.689Z,101163.72
2023-05-23T10:24:30.993Z,101172.66
2023-05-23T10:26:58.454Z,101161.75
2023-05-23T10:29:26.043Z,101159.84
2023-05-23T10:31:53.765Z,101157.03
2023-05-23T10:34:36.509Z,101161.38
2023-05-23T10:37:06.322Z,101154.44
2023-05-23T10:39:49.075Z,101158.00
2023-05-23T10:42:45.469Z,101150.88
2023-05-23T10:45:30.220Z,101150.25
2023-05-23T10:47:57.047Z,101152.13
2023-05-23T10:50:34.492Z,101151.47
2023-05-23T10:53:03.248Z,101158.44
2023-05-23T10:55:35.261Z,101158.16
2023-05-23T10:58:21.500Z,101153.78
2023-05-23T11:01:02.198Z,101157.38
2023-05-23T11:03:47.448Z,101156.09
2023-05-23T11:06:38.703Z,101151.53
2023-05-23T11:09:19.636Z,101154.84
2023-05-23T11:11:49.167Z,101160.88
2023-05-23T11:14:16.038Z,101157.44
2023-05-23T11:16:45.553Z,101165.88
2023-05-23T11:19:23.138Z,101169.47
2023-05-23T11:21:53.236Z,101157.16
2023-05-23T11:24:20.176Z,101167.16
2023-05-23T11:27:00.998Z,101163.44
2023-05-23T11:29:29.115Z,101163.59
2023-05-23T11:31:57.152Z,101163.72
2023-05-23T11:34:26.634Z,101164.19
2023-05-23T11:36:55.857Z,101163.16
2023-05-23T11:39:23.348Z,101158.31
2023-05-23T11:42:01.058Z,101161.59
2023-05-23T11:44:27.977Z,101166.88
2023-05-23T11:47:05.086Z,101153.88
2023-05-23T11:49:34.146Z,101148.47
2023-05-23T11:52:02.453Z,101141.44
2023-05-23T11:54:29.284Z,101146.16
2023-05-23T11:56:56.835Z,101149.41
2023-05-23T11:59:26.152Z,101134.81
2023-05-23T12:01:53.579Z,101150.56
2023-05-23T12:04:20.488Z,101139.69
2023-05-23T12:06:48.679Z,101138.97
2023-05-23T12:09:15.877Z,101133.94
2023-05-23T12:11:44.326Z,101138.09
2023-05-23T12:14:16.109Z,101138.94
2023-05-23T12:16:48.479Z,101142.53
2023-05-23T12:19:17.414Z,101133.53
2023-05-23T12:21:48.843Z,101136.22
2023-05-23T12:24:20.724Z,101141.34
2023-05-23T12:26:57.763Z,101142.81
2023-05-23T12:29:35.679Z,101135.13
2023-05-23T12:32:05.477Z,101133.06
2023-05-23T12:34:32.252Z,101141.75
2023-05-23T12:37:18.060Z,101130.34
2023-05-23T12:39:46.778Z,101133.09
2023-05-23T12:42:13.578Z,101142.63
2023-05-23T12:44:43.702Z,101132.00
2023-05-23T12:47:13.432Z,101135.38
2023-05-23T12:49:40.152Z,101141.09
2023-05-23T12:52:07.400Z,101140.50
2023-05-23T12:54:34.123Z,101139.00
2023-05-23T12:57:01.025Z,101138.28
2023-05-23T12:59:27.714Z,101144.78
2023-05-23T13:01:55.102Z,101144.38
2023-05-23T13:04:21.953Z,101135.78
2023-05-23T13:06:48.702Z,101135.44
2023-05-23T13:09:15.422Z,101139.72
2023-05-23T13:11:42.206Z,101147.44
2023-05-23T13:14:08.904Z,101140.06
2023-05-23T13:16:36.472Z,101129.31
2023-05-23T13:19:03.284Z,101133.91
2023-05-23T13:21:30.066Z,101133.69
2023-05-23T13:23:56.723Z,101144.50
2023-05-23T13:26:23.393Z,101146.22
2023-05-23T13:28:50.193Z,101138.41
2023-05-23T13:31:16.948Z,101146.91
2023-05-23T13:33:43.645Z,101144.34
2023-05-23T13:36:10.493Z,101133.78
2023-05-23T13:38:37.714Z,101130.13
2023-05-23T13:41:04.511Z,101142.47
2023-05-23T13:43:31.318Z,101137.66
2023-05-23T13:45:58.101Z,101134.88
2023-05-23T13:48:24.828Z,101129.78
2023-05-23T13:50:51.526Z,101133.34
2023-05-23T13:53:18.261Z,101137.34
2023-05-23T13:55:45.526Z,101136.94
2023-05-23T13:58:12.755Z,101141.84
2023-05-23T14:00:40.100Z,101129.88
2023-05-23T14:03:08.904Z,101139.41
2023-05-23T14:05:36.624Z,101137.31
2023-05-23T14:08:04.640Z,101134.28
2023-05-23T14:10:33.348Z,101144.72
2023-05-23T14:13:00.226Z,101145.31
2023-05-23T14:15:27.213Z,101148.03
2023-05-23T14:17:55.936Z,101149.31
2023-05-23T14:20:23.739Z,101161.25
2023-05-23T14:22:51.630Z,101154.09
2023-05-23T14:25:18.831Z,101152.28
2023-05-23T14:27:45.544Z,101164.47
2023-05-23T14:30:12.664Z,101156.25
2023-05-23T14:32:39.709Z,101167.75
2023-05-23T14:35:07.845Z,101167.38
2023-05-23T14:37:34.552Z,101167.41
2023-05-23T14:40:01.956Z,101175.28
2023-05-23T14:42:28.644Z,101179.69
2023-05-23T14:44:55.349Z,101181.94
2023-05-23T14:47:22.090Z,101186.09
2023-05-23T14:49:48.928Z,101180.59
2023-05-23T14:52:16.592Z,101182.94
2023-05-23T14:54:46.339Z,101198.44
2023-05-23T14:57:13.113Z,101185.59
2023-05-23T14:59:39.892Z,101190.25
2023-05-23T15:02:09.362Z,101193.22
2023-05-23T15:04:37.893Z,101189.91
2023-05-23T15:07:04.901Z,101189.34
2023-05-23T15:09:31.580Z,101191.34
2023-05-23T15:11:58.464Z,101189.75
2023-05-23T15:14:29.463Z,101190.03
2023-05-23T15:16:56.726Z,101195.06
2023-05-23T15:19:23.725Z,101203.09
2023-05-23T15:21:51.752Z,101182.84
2023-05-23T15:24:19.098Z,101193.91
2023-05-23T15:26:45.870Z,101193.28
2023-05-23T15:29:14.609Z,101191.31
2023-05-23T15:31:41.577Z,101189.53
2023-05-23T15:34:08.440Z,101189.22
2023-05-23T15:36:35.265Z,101204.56
2023-05-23T15:39:02.152Z,101197.94
2023-05-23T15:41:28.818Z,101209.69
2023-05-23T15:43:55.657Z,101201.25
2023-05-23T15:46:22.349Z,101201.31
2023-05-23T15:48:49.104Z,101206.78
2023-05-23T15:51:16.515Z,101221.44
2023-05-23T15:54:00.120Z,101215.13
2023-05-23T15:56:28.083Z,101199.94
2023-05-23T15:58:55.660Z,101205.81
2023-05-23T16:01:22.514Z,101213.44
2023-05-23T16:03:49.905Z,101203.19
2023-05-23T16:06:16.715Z,101216.63
2023-05-23T16:08:43.425Z,101211.66
2023-05-23T16:11:10.185Z,101205.78
2023-05-23T16:13:36.934Z,101210.59
2023-05-23T16:16:04.587Z,101203.38
2023-05-23T16:18:31.553Z,101210.47
2023-05-23T16:20:58.410Z,101206.88
2023-05-23T16:23:25.154Z,101207.50
2023-05-23T16:25:51.948Z,101199.69
2023-05-23T16:28:20.477Z,101201.38
2023-05-23T16:30:47.163Z,101201.31
2023-05-23T16:33:14.274Z,101203.44
2023-05-23T16:35:41.374Z,101196.69
2023-05-23T16:38:08.241Z,101205.81
2023-05-23T16:40:35.005Z,101200.91
2023-05-23T16:43:02.502Z,101196.75
2023-05-23T16:45:29.199Z,101198.22
2023-05-23T16:47:56.030Z,101200.31
2023-05-23T16:50:22.702Z,101195.94
2023-05-23T16:52:49.438Z,101203.75
2023-05-23T16:55:16.162Z,101206.47
2023-05-23T16:57:42.866Z,101207.59
2023-05-23T17:00:10.720Z,101216.66
2023-05-23T17:02:37.566Z,101205.38
2023-05-23T17:05:04.573Z,101213.19
2023-05-23T17:07:31.311Z,101219.88
2023-05-23T17:09:58.197Z,101219.97
2023-05-23T17:12:26.379Z,101220.63
2023-05-23T17:14:53.103Z,101222.00
2023-05-23T17:17:19.791Z,101231.38
2023-05-23T17:19:46.521Z,101229.66
2023-05-23T17:22:13.351Z,101235.19
2023-05-23T17:24:40.078Z,101234.94
2023-05-23T17:27:06.850Z,101220.03
2023-05-23T17:29:33.575Z,101224.94
2023-05-23T17:32:00.529Z,101233.19
2023-05-23T17:34:27.246Z,101224.34
2023-05-23T17:36:54.002Z,101231.00
2023-05-23T17:39:20.665Z,101235.81
2023-05-23T17:41:47.352Z,101244.53
2023-05-23T17:44:14.073Z,101235.44
2023-05-23T17:46:40.977Z,101243.25
2023-05-23T17:49:07.696Z,101238.53
2023-05-23T17:51:34.370Z,101231.22
2023-05-23T17:54:01.177Z,101248.97
2023-05-23T17:56:27.827Z,101242.22
2023-05-23T17:58:55.539Z,101253.41
2023-05-23T18:01:22.649Z,101249.47
2023-05-23T18:03:49.566Z,101255.53
2023-05-23T18:06:16.252Z,101260.00
2023-05-23T18:08:43.381Z,101251.06
2023-05-23T18:11:10.232Z,101257.63
2023-05-23T18:13:36.934Z,101258.25
2023-05-23T18:16:03.619Z,101263.66
2023-05-23T18:18:30.410Z,101255.28
2023-05-23T18:20:57.138Z,101265.22
2023-05-23T18:23:23.956Z,101261.06
2023-05-23T18:25:50.719Z,101264.88
2023-05-23T18:28:17.391Z,101262.41
2023-05-23T18:30:44.838Z,101273.53
2023-05-23T18:33:11.889Z,101269.53
2023-05-23T18:35:38.612Z,101275.63
2023-05-23T18:38:05.390Z,101269.97
2023-05-23T18:40:32.098Z,101277.75
2023-05-23T18:42:58.807Z,101282.75
2023-05-23T18:45:25.480Z,101295.63
2023-05-23T18:47:52.228Z,101286.41
2023-05-23T18:50:18.960Z,101282.03
2023-05-23T18:52:46.908Z,101286.44
2023-05-23T18:55:13.701Z,101295.25
2023-05-23T18:57:40.555Z,101297.63
2023-05-23T19:00:09.111Z,101293.66
2023-05-23T19:02:35.952Z,101300.59
2023-05-23T19:05:02.966Z,101301.47
2023-05-23T19:07:29.663Z,101303.22
2023-05-23T19:09:56.625Z,101301.03
2023-05-23T19:12:23.341Z,101306.63
2023-05-23T19:14:49.985Z,101304.06
2023-05-23T19:17:16.760Z,101313.22
2023-05-23T19:19:43.621Z,101310.09
2023-05-23T19:22:10.914Z,101309.81
2023-05-23T19:24:37.739Z,101307.59
2023-05-23T19:27:04.997Z,101303.59
2023-05-23T19:29:31.727Z,101307.66
2023-05-23T19:31:58.521Z,101308.50
2023-05-23T19:34:25.407Z,101313.19
2023-05-23T19:36:52.192Z,101313.59
2023-05-23T19:39:19.222Z,101318.75
2023-05-23T19:41:45.920Z,101314.34
2023-05-23T19:44:13.286Z,101313.78
2023-05-23T19:46:40.047Z,101320.53
2023-05-23T19:49:08.137Z,101315.00
2023-05-23T19:51:35.030Z,101321.06
2023-05-23T19:54:01.977Z,101327.16
2023-05-23T19:56:28.878Z,101336.44
2023-05-23T19:58:57.969Z,101337.63
2023-05-23T20:01:24.927Z,101341.34
2023-05-23T20:03:52.439Z,101336.94
2023-05-23T20:06:20.574Z,101338.19
2023-05-23T20:08:47.508Z,101349.25
2023-05-23T20:11:14.221Z,101352.22
2023-05-23T20:13:40.939Z,101346.38
2023-05-23T20:16:08.382Z,101356.44
2023-05-23T20:18:35.128Z,101358.53
2023-05-23T20:21:04.289Z,101355.44
2023-05-23T20:23:31.828Z,101362.22
2023-05-23T20:25:58.536Z,101357.41
2023-05-23T20:28:25.371Z,101360.66
2023-05-23T20:30:52.065Z,101363.03
2023-05-23T20:33:19.217Z,101367.38
2023-05-23T20:35:48.418Z,101366.31
2023-05-23T20:38:18.565Z,101367.97
2023-05-23T20:40:46.353Z,101375.56
2023-05-23T20:43:15.127Z,101363.59
2023-05-23T20:45:42.108Z,101369.34
2023-05-23T20:48:09.238Z,101372.28
2023-05-23T20:50:36.695Z,101377.03
2023-05-23T20:53:03.708Z,101377.66
2023-05-23T20:55:30.456Z,101377.19
2023-05-23T20:57:57.183Z,101378.59
2023-05-23T21:00:24.308Z,101379.69
2023-05-23T21:02:51.156Z,101381.75
2023-05-23T21:05:17.943Z,101383.06
2023-05-23T21:07:44.750Z,101378.97
2023-05-23T21:10:11.508Z,101385.13
2023-05-23T21:12:38.325Z,101385.81
2023-05-23T21:15:05.425Z,101395.84
2023-05-23T21:17:32.128Z,101398.69
2023-05-23T21:19:58.842Z,101401.63
2023-05-23T21:22:25.569Z,101401.63
2023-05-23T21:24:52.264Z,101408.84
2023-05-23T21:27:18.942Z,101402.78
2023-05-23T21:29:46.996Z,101407.38
2023-05-23T21:32:13.943Z,101404.84
2023-05-23T21:34:40.828Z,101405.16
2023-05-23T21:37:07.748Z,101410.78
2023-05-23T21:39:46.952Z,101409.97
2023-05-23T21:42:17.520Z,101407.69
2023-05-23T21:44:44.314Z,101415.56
2023-05-23T21:47:10.992Z,101415.53
2023-05-23T21:49:38.079Z,101415.16
2023-05-23T21:52:05.385Z,101416.13
2023-05-23T21:54:32.140Z,101421.47
2023-05-23T21:56:58.850Z,101420.84
2023-05-23T21:59:25.568Z,101425.53
2023-05-23T22:01:52.337Z,101419.38
2023-05-23T22:04:20.206Z,101416.69
2023-05-23T22:06:47.106Z,101413.16
2023-05-23T22:09:15.429Z,101414.09
2023-05-23T22:11:42.477Z,101412.44
2023-05-23T22:14:10.108Z,101408.28
2023-05-23T22:16:39.906Z,101408.00
2023-05-23T22:19:09.161Z,101399.72
2023-05-23T22:21:39.597Z,101399.41
2023-05-23T22:24:06.496Z,101390.88
2023-05-23T22:26:33.158Z,101392.03
2023-05-23T22:28:59.896Z,101401.13
2023-05-23T22:31:29.026Z,101400.41
2023-05-23T22:33:56.155Z,101410.34
2023-05-23T22:36:23.425Z,101415.88
2023-05-23T22:38:50.354Z,101421.72
2023-05-23T22:41:17.224Z,101415.78
2023-05-23T22:43:44.319Z,101414.25
2023-05-23T22:46:11.243Z,101424.00
2023-05-23T22:48:38.062Z,101435.75
2023-05-23T22:51:06.245Z,101431.47
2023-05-23T22:53:32.971Z,101441.56
2023-05-23T22:55:59.717Z,101435.63
2023-05-23T22:58:26.763Z,101439.19
2023-05-23T23:00:53.476Z,101435.66
2023-05-23T23:03:20.256Z,101439.19
2023-05-23T23:05:47.014Z,101447.16
2023-05-23T23:08:13.775Z,101434.72
2023-05-23T23:10:41.959Z,101439.41
2023-05-23T23:13:08.967Z,101438.09
2023-05-23T23:15:36.970Z,101434.75
2023-05-23T23:18:05.899Z,101428.78
2023-05-23T23:20:33.232Z,101427.22
2023-05-23T23:23:00.427Z,101425.59
2023-05-23T23:25:27.139Z,101429.22
2023-05-23T23:27:53.788Z,101428.53
2023-05-23T23:30:20.744Z,101429.56
2023-05-23T23:32:47.474Z,101426.16
2023-05-23T23:35:14.403Z,101423.47
2023-05-23T23:37:41.120Z,101428.81
2023-05-23T23:40:08.944Z,101432.38
2023-05-23T23:42:35.779Z,101441.34
2023-05-23T23:45:02.793Z,101445.31
2023-05-23T23:47:29.543Z,101443.00
2023-05-23T23:49:56.279Z,101433.34
2023-05-23T23:52:22.934Z,101433.38
2023-05-23T23:54:49.629Z,101434.56
2023-05-23T23:57:16.571Z,101433.16
2023-05-23T23:59:43.862Z,101428.03
